createdAt,value
2018-12-01T00:01:48.420Z,100947.05
2018-12-01T00:04:26.598Z,100951.69
2018-12-01T00:08:31.208Z,100945.23
2018-12-01T00:10:59.948Z,100951.13
2018-12-01T00:13:31.347Z,100946.80
2018-12-01T00:15:59.807Z,100959.28
2018-12-01T00:18:30.808Z,100958.52
2018-12-01T00:21:01.111Z,100963.76
2018-12-01T00:23:35.078Z,100784.76
2018-12-01T00:26:07.907Z,100963.03
2018-12-01T00:28:50.511Z,100955.50
2018-12-01T00:31:27.809Z,100958.44
2018-12-01T00:34:07.565Z,100959.92
2018-12-01T00:36:41.872Z,100955.08
2018-12-01T00:39:21.795Z,100955.02
2018-12-01T00:41:56.921Z,100958.02
2018-12-01T00:44:31.210Z,100955.36
2018-12-01T00:47:02.207Z,100950.24
2018-12-01T00:49:32.522Z,100941.66
2018-12-01T00:52:05.213Z,100950.00
2018-12-01T00:54:34.531Z,100941.89
2018-12-01T00:57:03.820Z,100946.61
2018-12-01T00:59:32.811Z,100943.67
2018-12-01T01:02:02.666Z,100945.41
2018-12-01T01:04:31.392Z,100953.88
2018-12-01T01:07:01.031Z,100946.44
2018-12-01T01:09:29.803Z,100949.39
2018-12-01T01:12:01.166Z,100961.00
2018-12-01T01:14:31.216Z,100960.77
2018-12-01T01:17:03.186Z,100960.62
2018-12-01T01:19:31.716Z,100952.63
2018-12-01T01:22:01.265Z,100956.38
2018-12-01T01:24:31.162Z,100958.08
2018-12-01T01:27:00.397Z,100960.74
2018-12-01T01:29:29.955Z,100966.30
2018-12-01T01:32:03.161Z,100967.39
2018-12-01T01:34:32.410Z,100959.78
2018-12-01T01:37:02.944Z,100965.92
2018-12-01T01:39:31.722Z,100961.05
2018-12-01T01:42:01.223Z,100966.03
2018-12-01T01:44:31.636Z,100964.92
2018-12-01T01:47:12.478Z,100963.14
2018-12-01T01:49:41.406Z,100961.03
2018-12-01T01:52:10.382Z,100961.00
2018-12-01T01:54:38.861Z,100955.67
2018-12-01T01:57:07.543Z,100958.69
2018-12-01T01:59:36.156Z,100956.42
2018-12-01T02:02:04.686Z,100959.69
2018-12-01T02:04:33.745Z,100958.35
2018-12-01T02:07:03.117Z,100958.23
2018-12-01T02:09:31.699Z,100950.87
2018-12-01T02:12:00.317Z,100953.53
2018-12-01T02:14:29.228Z,100954.23
2018-12-01T02:16:58.814Z,100950.98
2018-12-01T02:19:27.395Z,100951.62
2018-12-01T02:21:56.023Z,100956.08
2018-12-01T02:24:27.418Z,100953.30
2018-12-01T02:26:55.727Z,100957.77
2018-12-01T02:29:23.981Z,100958.97
2018-12-01T02:31:54.064Z,100951.83
2018-12-01T02:34:23.189Z,100948.80
2018-12-01T02:36:51.718Z,100954.12
2018-12-01T02:39:20.272Z,100936.52
2018-12-01T02:41:49.503Z,100936.87
2018-12-01T02:44:23.353Z,100935.52
2018-12-01T02:47:00.053Z,100937.31
2018-12-01T02:49:29.387Z,100931.78
2018-12-01T02:51:57.601Z,100936.15
2018-12-01T02:54:25.897Z,100937.70
2018-12-01T02:56:55.737Z,100939.52
2018-12-01T02:59:25.464Z,100934.33
2018-12-01T03:01:55.474Z,100932.76
2018-12-01T03:04:25.468Z,100928.08
2018-12-01T03:06:54.394Z,100931.67
2018-12-01T03:09:23.851Z,100924.66
2018-12-01T03:11:52.312Z,100930.83
2018-12-01T03:14:27.361Z,100926.69
2018-12-01T03:17:00.047Z,100922.95
2018-12-01T03:19:29.223Z,100925.27
2018-12-01T03:21:57.787Z,100920.06
2018-12-01T03:24:29.347Z,100917.91
2018-12-01T03:27:01.590Z,100916.70
2018-12-01T03:29:30.235Z,100911.87
2018-12-01T03:31:58.775Z,100908.72
2018-12-01T03:34:27.841Z,100909.78
2018-12-01T03:36:57.243Z,100908.48
2018-12-01T03:39:26.217Z,100919.83
2018-12-01T03:41:54.780Z,100924.33
2018-12-01T03:44:24.041Z,100926.73
2018-12-01T03:46:52.688Z,100922.16
2018-12-01T03:49:21.871Z,100925.98
2018-12-01T03:51:51.766Z,100930.16
2018-12-01T03:54:22.644Z,100944.98
2018-12-01T03:56:51.390Z,100940.97
2018-12-01T03:59:21.300Z,100941.63
2018-12-01T04:01:50.947Z,100940.14
2018-12-01T04:05:14.401Z,100948.34
2018-12-01T04:07:44.237Z,100953.91
2018-12-01T04:10:12.718Z,100949.66
2018-12-01T04:12:41.894Z,100951.83
2018-12-01T04:15:13.583Z,100955.34
2018-12-01T04:17:43.654Z,100955.83
2018-12-01T04:20:54.768Z,100959.44
2018-12-01T04:23:23.486Z,100962.19
2018-12-01T04:25:52.725Z,100957.25
2018-12-01T04:28:21.407Z,100955.70
2018-12-01T04:30:50.031Z,100793.09
2018-12-01T04:33:18.342Z,100956.20
2018-12-01T04:35:47.034Z,100957.30
2018-12-01T04:38:15.445Z,100962.94
2018-12-01T04:40:43.770Z,100967.19
2018-12-01T04:43:14.606Z,100978.55
2018-12-01T04:45:43.612Z,100982.87
2018-12-01T04:48:12.605Z,100985.42
2018-12-01T04:50:41.882Z,100986.37
2018-12-01T04:53:10.543Z,100986.29
2018-12-01T04:55:39.304Z,100983.48
2018-12-01T04:58:08.283Z,100992.57
2018-12-01T05:00:36.886Z,100989.55
2018-12-01T05:03:05.154Z,100985.53
2018-12-01T05:05:33.744Z,100991.95
2018-12-01T05:08:02.409Z,100987.86
2018-12-01T05:10:31.110Z,100985.79
2018-12-01T05:13:00.146Z,100983.87
2018-12-01T05:15:29.598Z,100993.63
2018-12-01T05:17:58.069Z,100986.26
2018-12-01T05:20:26.743Z,100979.60
2018-12-01T05:22:55.892Z,100984.09
2018-12-01T05:25:24.444Z,100985.42
2018-12-01T05:27:53.524Z,100979.75
2018-12-01T05:30:37.388Z,100985.77
2018-12-01T05:33:06.064Z,100986.73
2018-12-01T05:35:34.538Z,100989.59
2018-12-01T05:38:02.913Z,100990.56
2018-12-01T05:40:31.685Z,100920.97
2018-12-01T05:43:00.162Z,100995.02
2018-12-01T05:45:56.501Z,100990.08
2018-12-01T05:48:25.060Z,100994.94
2018-12-01T05:50:53.658Z,100990.58
2018-12-01T05:53:23.003Z,100991.94
2018-12-01T05:55:51.229Z,100995.93
2018-12-01T05:58:19.660Z,100987.59
2018-12-01T06:03:27.223Z,100978.89
2018-12-01T06:08:34.674Z,100975.05
2018-12-01T06:11:03.874Z,100973.24
2018-12-01T06:13:32.502Z,100971.88
2018-12-01T06:16:02.736Z,100968.98
2018-12-01T06:18:37.371Z,100958.74
2018-12-01T06:21:05.906Z,100953.54
2018-12-01T06:23:36.130Z,100952.58
2018-12-01T06:26:06.357Z,100960.39
2018-12-01T06:28:35.498Z,100965.98
2018-12-01T06:31:07.272Z,100963.80
2018-12-01T06:33:36.156Z,100954.38
2018-12-01T06:36:05.507Z,100963.31
2018-12-01T06:38:35.393Z,100969.48
2018-12-01T06:41:04.221Z,100966.09
2018-12-01T06:43:37.565Z,100972.14
2018-12-01T06:46:11.857Z,100973.23
2018-12-01T06:48:41.715Z,100971.89
2018-12-01T06:53:28.803Z,100971.39
2018-12-01T06:55:58.022Z,100969.73
2018-12-01T06:58:27.219Z,100965.23
2018-12-01T07:00:57.252Z,100965.59
2018-12-01T07:03:27.951Z,100965.00
2018-12-01T07:05:58.283Z,100973.95
2018-12-01T07:08:28.712Z,100970.81
2018-12-01T07:11:02.414Z,100970.53
2018-12-01T07:13:37.155Z,100969.48
2018-12-01T07:16:06.962Z,100962.34
2018-12-01T07:18:46.344Z,100966.55
2018-12-01T07:21:24.999Z,100967.00
2018-12-01T07:23:53.636Z,100967.48
2018-12-01T07:26:25.265Z,100960.28
2018-12-01T07:28:54.298Z,100966.46
2018-12-01T07:31:25.464Z,100969.48
2018-12-01T07:33:54.544Z,100964.40
2018-12-01T07:36:24.727Z,100956.88
2018-12-01T07:38:56.100Z,100956.30
2018-12-01T07:41:27.204Z,100957.36
2018-12-01T07:43:56.968Z,100957.87
2018-12-01T07:46:33.931Z,100958.69
2018-12-01T07:49:05.229Z,100960.86
2018-12-01T07:51:35.070Z,100957.62
2018-12-01T07:54:08.234Z,100959.91
2018-12-01T07:59:29.853Z,100966.43
2018-12-01T08:02:00.380Z,100965.96
2018-12-01T08:04:29.841Z,100894.51
2018-12-01T08:07:02.110Z,100981.05
2018-12-01T08:09:37.800Z,100976.69
2018-12-01T08:12:10.215Z,100981.86
2018-12-01T08:14:39.691Z,100905.31
2018-12-01T08:17:11.664Z,100982.23
2018-12-01T08:19:43.638Z,100981.76
2018-12-01T08:22:15.916Z,100927.36
2018-12-01T08:24:45.818Z,100971.25
2018-12-01T08:27:15.980Z,100925.55
2018-12-01T08:29:45.967Z,100975.89
2018-12-01T08:32:17.088Z,100978.53
2018-12-01T08:34:51.546Z,100969.09
2018-12-01T08:37:21.395Z,100961.76
2018-12-01T08:39:55.835Z,100957.21
2018-12-01T08:42:29.508Z,100956.19
2018-12-01T08:45:13.041Z,100963.68
2018-12-01T08:47:50.834Z,100964.74
2018-12-01T08:50:26.721Z,100954.86
2018-12-01T08:53:08.736Z,100963.78
2018-12-01T08:55:42.322Z,100960.28
2018-12-01T08:58:21.587Z,100963.78
2018-12-01T09:00:54.317Z,100974.05
2018-12-01T09:03:47.678Z,100974.03
2018-12-01T09:06:53.278Z,100976.22
2018-12-01T09:09:45.719Z,100972.42
2018-12-01T09:12:38.036Z,100977.18
2018-12-01T09:15:20.566Z,100985.34
2018-12-01T09:17:59.572Z,100984.67
2018-12-01T09:20:42.013Z,100983.38
2018-12-01T09:25:58.466Z,100971.27
2018-12-01T09:28:41.613Z,100975.85
2018-12-01T09:31:27.000Z,100973.11
2018-12-01T09:34:13.681Z,100973.92
2018-12-01T09:36:58.793Z,100971.89
2018-12-01T09:39:31.131Z,100981.06
2018-12-01T09:43:59.424Z,100980.13
2018-12-01T09:46:29.563Z,100973.23
2018-12-01T09:49:10.074Z,100972.25
2018-12-01T09:51:51.814Z,100968.14
2018-12-01T09:54:31.253Z,100960.34
2018-12-01T09:57:07.397Z,100957.44
2018-12-01T09:59:39.081Z,100947.86
2018-12-01T10:02:09.857Z,100949.24
2018-12-01T10:04:40.486Z,100950.27
2018-12-01T10:07:11.412Z,100941.73
2018-12-01T10:09:41.506Z,100955.49
2018-12-01T10:12:11.273Z,100938.37
2018-12-01T10:14:40.102Z,100928.79
2018-12-01T10:17:12.747Z,100940.24
2018-12-01T10:19:44.733Z,100935.89
2018-12-01T10:22:17.272Z,100932.97
2018-12-01T10:24:46.950Z,100893.63
2018-12-01T10:27:16.132Z,100929.34
2018-12-01T10:29:54.899Z,100927.63
2018-12-01T10:32:25.013Z,100936.84
2018-12-01T10:34:59.638Z,100922.80
2018-12-01T10:37:36.545Z,100916.68
2018-12-01T10:40:21.173Z,100917.23
2018-12-01T10:42:59.391Z,100925.81
2018-12-01T10:45:29.047Z,100915.97
2018-12-01T10:48:08.010Z,100915.91
2018-12-01T10:52:58.667Z,100915.97
2018-12-01T10:55:45.422Z,100905.72
2018-12-01T11:01:03.396Z,100901.16
2018-12-01T11:03:38.768Z,100904.45
2018-12-01T11:06:12.541Z,100896.14
2018-12-01T11:08:47.118Z,100906.56
2018-12-01T11:11:18.755Z,100892.95
2018-12-01T11:13:47.551Z,100885.21
2018-12-01T11:16:22.464Z,100881.86
2018-12-01T11:18:51.761Z,100881.95
2018-12-01T11:21:27.699Z,100875.88
2018-12-01T11:23:56.945Z,100877.78
2018-12-01T11:26:27.301Z,100869.64
2018-12-01T11:28:57.927Z,100863.83
2018-12-01T11:31:29.154Z,100868.93
2018-12-01T11:33:59.963Z,100846.88
2018-12-01T11:36:34.133Z,100850.09
2018-12-01T11:39:05.218Z,100856.09
2018-12-01T11:41:33.939Z,100833.27
2018-12-01T11:44:08.696Z,100830.37
2018-12-01T11:46:39.934Z,100827.75
2018-12-01T11:49:15.206Z,100825.31
2018-12-01T11:51:46.424Z,100817.90
2018-12-01T11:54:17.090Z,100815.98
2018-12-01T11:56:53.650Z,100821.25
2018-12-01T11:59:24.214Z,100813.49
2018-12-01T12:01:54.328Z,100817.55
2018-12-01T12:04:28.325Z,100803.71
2018-12-01T12:07:12.616Z,100812.92
2018-12-01T12:09:46.642Z,100803.77
2018-12-01T12:12:15.995Z,100797.97
2018-12-01T12:14:46.435Z,100802.19
2018-12-01T12:17:23.295Z,100803.55
2018-12-01T12:19:56.606Z,100803.30
2018-12-01T12:22:40.759Z,100795.56
2018-12-01T12:25:19.759Z,100784.50
2018-12-01T12:27:57.113Z,100761.72
2018-12-01T12:30:33.447Z,100781.81
2018-12-01T12:33:08.078Z,100771.89
2018-12-01T12:35:39.449Z,100764.09
2018-12-01T12:42:52.579Z,100772.56
2018-12-01T12:45:36.722Z,100764.39
2018-12-01T12:48:14.695Z,100759.22
2018-12-01T12:50:45.528Z,100749.20
2018-12-01T12:53:17.106Z,100749.28
2018-12-01T12:55:49.771Z,100756.80
2018-12-01T12:58:18.456Z,100746.15
2018-12-01T13:00:50.810Z,100736.95
2018-12-01T13:03:21.721Z,100738.74
2018-12-01T13:06:00.641Z,100736.30
2018-12-01T13:08:36.215Z,100742.09
2018-12-01T13:11:07.272Z,100738.52
2018-12-01T13:13:41.393Z,100732.80
2018-12-01T13:16:14.993Z,100739.07
2018-12-01T13:18:44.659Z,100730.25
2018-12-01T13:24:00.737Z,100735.02
2018-12-01T13:26:34.651Z,100740.66
2018-12-01T13:29:08.952Z,100728.84
2018-12-01T13:31:47.961Z,100729.73
2018-12-01T13:34:27.356Z,100734.61
2018-12-01T13:36:58.320Z,100731.09
2018-12-01T13:39:29.872Z,100718.02
2018-12-01T13:42:04.840Z,100723.36
2018-12-01T13:44:36.589Z,100720.60
2018-12-01T13:47:07.213Z,100715.05
2018-12-01T13:49:40.390Z,100727.02
2018-12-01T13:52:18.051Z,100717.41
2018-12-01T13:54:52.017Z,100707.94
2018-12-01T13:57:28.671Z,100690.81
2018-12-01T14:02:54.735Z,100694.16
2018-12-01T14:05:25.506Z,100695.55
2018-12-01T14:07:59.895Z,100692.96
2018-12-01T14:13:13.648Z,100692.26
2018-12-01T14:15:48.014Z,100695.71
2018-12-01T14:18:16.832Z,100687.71
2018-12-01T14:20:46.600Z,100691.71
2018-12-01T14:23:16.496Z,100688.55
2018-12-01T14:25:47.014Z,100685.67
2018-12-01T14:28:16.435Z,100697.52
2018-12-01T14:30:46.272Z,100690.92
2018-12-01T14:33:16.426Z,100674.04
2018-12-01T14:35:44.768Z,100692.84
2018-12-01T14:38:17.128Z,100689.47
2018-12-01T14:40:49.834Z,100698.67
2018-12-01T14:43:18.184Z,100695.03
2018-12-01T14:45:51.637Z,100692.31
2018-12-01T14:48:28.742Z,100696.77
2018-12-01T14:51:06.129Z,100688.94
2018-12-01T14:53:36.701Z,100693.99
2018-12-01T14:56:16.959Z,100684.52
2018-12-01T14:58:49.984Z,100686.70
2018-12-01T15:04:11.762Z,100681.88
2018-12-01T15:06:41.866Z,100680.41
2018-12-01T15:09:13.903Z,100671.58
2018-12-01T15:11:46.521Z,100668.73
2018-12-01T15:14:15.536Z,100676.73
2018-12-01T15:16:44.210Z,100670.69
2018-12-01T15:19:13.882Z,100668.91
2018-12-01T15:23:24.475Z,100674.85
2018-12-01T15:28:05.098Z,100664.06
2018-12-01T15:30:35.754Z,100669.59
2018-12-01T15:33:05.389Z,100669.78
2018-12-01T15:35:38.382Z,100673.23
2018-12-01T15:38:08.843Z,100664.48
2018-12-01T15:40:37.854Z,100658.99
2018-12-01T15:43:07.773Z,100651.89
2018-12-01T15:45:37.078Z,100653.52
2018-12-01T15:48:07.647Z,100636.19
2018-12-01T15:50:37.254Z,100646.41
2018-12-01T15:53:10.816Z,100635.55
2018-12-01T15:55:43.223Z,100630.84
2018-12-01T15:58:13.135Z,100618.38
2018-12-01T16:00:43.931Z,100618.09
2018-12-01T16:03:17.627Z,100618.46
2018-12-01T16:05:47.766Z,100611.26
2018-12-01T16:08:16.205Z,100590.26
2018-12-01T16:10:46.437Z,100591.59
2018-12-01T16:13:19.256Z,100585.77
2018-12-01T16:15:50.300Z,100582.05
2018-12-01T16:18:20.861Z,100575.19
2018-12-01T16:20:51.255Z,100566.42
2018-12-01T16:23:20.176Z,100569.11
2018-12-01T16:31:20.704Z,100562.31
2018-12-01T16:33:59.065Z,100562.98
2018-12-01T16:39:38.867Z,100560.28
2018-12-01T16:49:05.311Z,100543.46
2018-12-01T16:51:35.426Z,100528.34
2018-12-01T16:54:12.150Z,100518.64
2018-12-01T16:57:21.663Z,100519.84
2018-12-01T16:59:56.985Z,100509.91
2018-12-01T17:02:41.074Z,100511.22
2018-12-01T17:05:18.227Z,100507.72
2018-12-01T17:16:09.973Z,100485.64
2018-12-01T17:18:45.745Z,100481.37
2018-12-01T17:21:27.072Z,100452.75
2018-12-01T17:24:13.077Z,100463.52
2018-12-01T17:26:47.855Z,100455.71
2018-12-01T17:29:29.110Z,100443.50
2018-12-01T17:32:11.712Z,100443.42
2018-12-01T17:34:56.578Z,100447.58
2018-12-01T17:37:47.186Z,100445.23
2018-12-01T17:40:24.564Z,100438.74
2018-12-01T17:43:00.351Z,100435.38
2018-12-01T17:45:39.202Z,100430.06
2018-12-01T17:48:20.471Z,100424.73
2018-12-01T17:51:14.932Z,100411.45
2018-12-01T17:54:05.627Z,100415.89
2018-12-01T17:56:49.623Z,100420.07
2018-12-01T17:59:36.330Z,100414.13
2018-12-01T18:02:13.059Z,100398.58
2018-12-01T18:04:45.700Z,100393.30
2018-12-01T18:07:23.675Z,100394.55
2018-12-01T18:10:00.367Z,100382.08
2018-12-01T18:12:39.331Z,100386.70
2018-12-01T18:15:21.112Z,100383.36
2018-12-01T18:17:52.861Z,100392.98
2018-12-01T18:23:30.267Z,100316.44
2018-12-01T18:26:08.861Z,100384.44
2018-12-01T18:28:47.577Z,100382.08
2018-12-01T18:31:23.344Z,100374.53
2018-12-01T18:34:04.096Z,100371.19
2018-12-01T18:36:36.244Z,100375.64
2018-12-01T18:39:22.638Z,100374.22
2018-12-01T18:41:59.252Z,100371.02
2018-12-01T18:44:48.652Z,100376.56
2018-12-01T18:47:33.650Z,100372.92
2018-12-01T18:50:07.134Z,100364.84
2018-12-01T19:00:54.366Z,100337.80
2018-12-01T19:03:42.540Z,100336.41
2018-12-01T19:06:17.012Z,100337.42
2018-12-01T19:08:51.596Z,100323.91
2018-12-01T19:11:26.958Z,100326.88
2018-12-01T19:14:17.436Z,100330.88
2018-12-01T19:16:51.413Z,100324.47
2018-12-01T19:19:23.443Z,100326.64
2018-12-01T19:24:41.228Z,100314.88
2018-12-01T19:27:14.615Z,100311.34
2018-12-01T19:29:48.365Z,100303.45
2018-12-01T19:32:25.396Z,100302.73
2018-12-01T19:34:57.894Z,100303.62
2018-12-01T19:37:30.703Z,100288.27
2018-12-01T19:42:13.438Z,100290.75
2018-12-01T19:44:43.347Z,100241.05
2018-12-01T19:47:15.591Z,100279.22
2018-12-01T19:49:46.019Z,100281.88
2018-12-01T19:52:17.331Z,100289.52
2018-12-01T19:54:56.157Z,100272.27
2018-12-01T19:57:30.121Z,100266.05
2018-12-01T20:00:05.965Z,100265.79
2018-12-01T20:02:37.136Z,100261.25
2018-12-01T20:05:07.381Z,100266.46
2018-12-01T20:07:41.290Z,100255.81
2018-12-01T20:10:15.691Z,100255.89
2018-12-01T20:12:58.387Z,100250.25
2018-12-01T20:19:14.178Z,100245.13
2018-12-01T20:21:46.503Z,100245.48
2018-12-01T20:24:22.068Z,100238.66
2018-12-01T20:26:59.059Z,100236.52
2018-12-01T20:29:37.681Z,100233.08
2018-12-01T20:32:16.432Z,100228.13
2018-12-01T20:34:51.470Z,100236.62
2018-12-01T20:37:36.423Z,100230.20
2018-12-01T20:40:20.581Z,100224.98
2018-12-01T20:42:56.974Z,100226.45
2018-12-01T20:45:39.258Z,100217.52
2018-12-01T20:48:11.108Z,100219.20
2018-12-01T20:50:43.964Z,100220.81
2018-12-01T20:53:15.279Z,100204.48
2018-12-01T20:55:54.621Z,100202.67
2018-12-01T20:58:32.557Z,100199.25
2018-12-01T21:01:07.703Z,100201.33
2018-12-01T21:03:41.492Z,100203.83
2018-12-01T21:06:21.271Z,100197.22
2018-12-01T21:08:59.033Z,100184.88
2018-12-01T21:14:17.436Z,100170.86
2018-12-01T21:16:52.288Z,100173.35
2018-12-01T21:19:27.644Z,100166.61
2018-12-01T21:22:10.815Z,100160.15
2018-12-01T21:24:42.387Z,100153.45
2018-12-01T21:27:13.968Z,100160.80
2018-12-01T21:29:49.613Z,100155.89
2018-12-01T21:32:28.030Z,100155.45
2018-12-01T21:35:08.123Z,100143.44
2018-12-01T21:37:39.539Z,100149.03
2018-12-01T21:40:12.095Z,100151.28
2018-12-01T21:43:51.099Z,100131.69
2018-12-01T21:46:21.987Z,100135.20
2018-12-01T21:49:07.419Z,100130.14
2018-12-01T21:51:46.682Z,100125.83
2018-12-01T21:54:19.309Z,100134.15
2018-12-01T21:57:10.734Z,100131.20
2018-12-01T22:02:36.713Z,100129.91
2018-12-01T22:05:16.737Z,100126.86
2018-12-01T22:08:00.560Z,100127.47
2018-12-01T22:10:31.319Z,100120.86
2018-12-01T22:13:01.524Z,100123.66
2018-12-01T22:15:33.379Z,100118.34
2018-12-01T22:18:04.332Z,100080.22
2018-12-01T22:20:46.128Z,100118.61
2018-12-01T22:23:24.101Z,100111.28
2018-12-01T22:25:57.416Z,100110.03
2018-12-01T22:28:35.229Z,100104.91
2018-12-01T22:31:01.129Z,100096.73
2018-12-01T22:33:33.730Z,100100.02
2018-12-01T22:36:04.207Z,100047.70
2018-12-01T22:38:35.268Z,100092.28
2018-12-01T22:41:10.674Z,100086.43
2018-12-01T22:43:44.735Z,100081.88
2018-12-01T22:46:19.081Z,100089.41
2018-12-01T22:52:13.484Z,100081.41
2018-12-01T22:55:05.430Z,100084.63
2018-12-01T22:57:48.624Z,100088.35
2018-12-01T23:00:44.863Z,100081.41
2018-12-01T23:03:30.979Z,100085.91
2018-12-01T23:09:15.292Z,100081.29
2018-12-01T23:11:48.292Z,100086.81
2018-12-01T23:16:55.665Z,100076.60
2018-12-01T23:19:29.562Z,100072.91
2018-12-01T23:21:59.084Z,100070.81
2018-12-01T23:24:42.487Z,100070.02
2018-12-01T23:27:13.563Z,100066.81
2018-12-01T23:30:01.334Z,100067.27
2018-12-01T23:32:36.312Z,99960.67
2018-12-01T23:35:08.193Z,100057.34
2018-12-01T23:37:38.958Z,100047.52
2018-12-01T23:40:12.604Z,100050.02
2018-12-01T23:42:55.298Z,100041.14
2018-12-01T23:45:26.421Z,100038.48
2018-12-01T23:47:57.220Z,100036.78
2018-12-01T23:50:29.815Z,100037.97
2018-12-01T23:53:03.312Z,100024.42
2018-12-01T23:55:34.991Z,100030.31
2018-12-01T23:58:06.806Z,100026.16
